Time;durP1;ratioP1;P1;durP2;ratioP2;P2;SDS_P1;SDS_P2;PMS_P1;PMS_P2;Temp;Humidity;BMP_temperature;BMP_pressure;BME280_temperature;BME280_humidity;BME280_pressure;Samples;Min_cycle;Max_cycle;Signal;HPM_P1;HPM_P2
2023/10/06 00:03:13;;;;;;;1.70;0.93;;;;;;;;;;10322810;28;20512;-77
2023/10/06 00:08:20;;;;;;;2.47;1.17;;;;;;;;;;10312934;28;20157;-78
2023/10/06 00:13:29;;;;;;;2.63;1.10;;;;;;;;;;10316956;28;20054;-77
2023/10/06 00:18:36;;;;;;;4.45;1.33;;;;;;;;;;10322361;28;20460;-77
2023/10/06 00:23:43;;;;;;;1.77;1.30;;;;;;;;;;10301654;28;20078;-77
2023/10/06 00:28:46;;;;;;;1.77;1.08;;;;;;;;;;10321686;28;20061;-77
2023/10/06 00:33:50;;;;;;;4.13;1.50;;;;;;;;;;10323384;28;20054;-77
2023/10/06 00:38:55;;;;;;;2.25;1.30;;;;;;;;;;10295567;28;20424;-77
2023/10/06 00:43:59;;;;;;;2.72;1.50;;;;;;;;;;10321383;28;20498;-77
2023/10/06 00:49:07;;;;;;;2.20;1.30;;;;;;;;;;10313260;28;20045;-75
2023/10/06 00:54:12;;;;;;;1.35;1.05;;;;;;;;;;10318771;28;20596;-75
2023/10/06 00:59:17;;;;;;;3.55;1.20;;;;;;;;;;10322965;28;20051;-75
2023/10/06 01:04:24;;;;;;;2.22;1.15;;;;;;;;;;10321114;28;20038;-75
2023/10/06 01:09:32;;;;;;;1.58;0.95;;;;;;;;;;10316761;28;20511;-75
2023/10/06 01:14:35;;;;;;;1.20;0.80;;;;;;;;;;10315248;28;20121;-75
2023/10/06 01:19:47;;;;;;;3.28;1.10;;;;;;;;;;10318356;28;20124;-76
2023/10/06 01:24:54;;;;;;;1.70;1.08;;;;;;;;;;10298629;28;20050;-75
2023/10/06 01:30:17;;;;;;;1.23;0.85;;;;;;;;;;10295421;28;20075;-76
2023/10/06 01:35:23;;;;;;;1.00;0.63;;;;;;;;;;10309874;28;20050;-75
2023/10/06 01:40:43;;;;;;;1.05;0.70;;;;;;;;;;10403586;23;20053;-77
2023/10/06 01:45:47;;;;;;;1.08;0.70;;;;;;;;;;10324873;28;20058;-76
2023/10/06 01:50:50;;;;;;;1.95;0.80;;;;;;;;;;10321521;28;20061;-77
2023/10/06 01:55:55;;;;;;;1.33;0.90;;;;;;;;;;10327522;28;20052;-77
2023/10/06 02:00:58;;;;;;;1.25;0.70;;;;;;;;;;10320720;28;20051;-76
2023/10/06 02:06:02;;;;;;;1.52;1.20;;;;;;;;;;10310902;28;20055;-77
2023/10/06 02:11:09;;;;;;;2.47;1.10;;;;;;;;;;10309746;28;20046;-77
2023/10/06 02:16:13;;;;;;;2.40;1.23;;;;;;;;;;10316821;28;20070;-77
2023/10/06 02:21:23;;;;;;;1.55;0.90;;;;;;;;;;10317996;28;20133;-77
2023/10/06 02:26:28;;;;;;;2.00;0.90;;;;;;;;;;10299792;28;20461;-77
2023/10/06 02:31:32;;;;;;;2.35;1.20;;;;;;;;;;10303706;28;20585;-76
2023/10/06 02:36:35;;;;;;;1.17;0.80;;;;;;;;;;10306051;28;20055;-77
2023/10/06 02:41:40;;;;;;;1.85;1.00;;;;;;;;;;10281307;28;20391;-77
2023/10/06 02:46:45;;;;;;;3.30;1.00;;;;;;;;;;10299104;28;20126;-77
2023/10/06 02:51:48;;;;;;;2.20;1.40;;;;;;;;;;10299190;28;20133;-77
2023/10/06 02:56:55;;;;;;;2.08;1.20;;;;;;;;;;10317679;28;20574;-77
2023/10/06 03:02:00;;;;;;;1.25;1.00;;;;;;;;;;10308320;28;20650;-77
2023/10/06 03:07:11;;;;;;;1.40;1.08;;;;;;;;;;10305137;28;20451;-77
2023/10/06 03:12:26;;;;;;;1.45;1.05;;;;;;;;;;10287754;28;20077;-77
2023/10/06 03:17:31;;;;;;;;;;;;;;;;;;10307676;28;20559;-78
2023/10/06 03:22:38;;;;;;;1.10;1.00;;;;;;;;;;10322641;28;19949;-77
2023/10/06 03:27:45;;;;;;;2.83;1.00;;;;;;;;;;10299935;28;20077;-77
2023/10/06 03:32:49;;;;;;;2.28;1.15;;;;;;;;;;10306167;28;20046;-77
2023/10/06 03:37:53;;;;;;;3.78;1.13;;;;;;;;;;10320045;28;20060;-77
2023/10/06 03:43:05;;;;;;;1.27;0.95;;;;;;;;;;10315312;28;20078;-77
2023/10/06 03:48:11;;;;;;;4.00;1.20;;;;;;;;;;10302121;28;20190;-77
2023/10/06 03:53:16;;;;;;;1.30;1.00;;;;;;;;;;10308580;28;20572;-77
2023/10/06 03:58:25;;;;;;;1.05;0.88;;;;;;;;;;10317107;28;20129;-77
2023/10/06 04:03:28;;;;;;;2.70;0.90;;;;;;;;;;10312062;28;20058;-77
2023/10/06 04:08:31;;;;;;;1.30;0.90;;;;;;;;;;10310813;28;20105;-77
2023/10/06 04:13:38;;;;;;;2.00;1.10;;;;;;;;;;10315124;28;20109;-77
2023/10/06 04:18:47;;;;;;;1.75;0.82;;;;;;;;;;10323234;28;20078;-77
2023/10/06 04:23:51;;;;;;;1.98;0.60;;;;;;;;;;10316421;28;20042;-77
2023/10/06 04:28:57;;;;;;;1.33;0.90;;;;;;;;;;10299946;28;20050;-77
2023/10/06 04:34:01;;;;;;;1.02;0.70;;;;;;;;;;10323862;28;20050;-77
2023/10/06 04:39:09;;;;;;;2.97;1.00;;;;;;;;;;10316258;28;20069;-77
2023/10/06 04:44:14;;;;;;;1.75;1.13;;;;;;;;;;10323765;28;20578;-77
2023/10/06 04:49:17;;;;;;;2.00;0.90;;;;;;;;;;10319992;28;20044;-77
2023/10/06 04:54:21;;;;;;;2.15;1.35;;;;;;;;;;10312775;28;20047;-77
2023/10/06 04:59:27;;;;;;;3.35;1.10;;;;;;;;;;10324276;28;20038;-77
2023/10/06 05:04:30;;;;;;;2.70;1.33;;;;;;;;;;10326067;28;20043;-78
2023/10/06 05:09:33;;;;;;;1.30;0.90;;;;;;;;;;10328410;28;20045;-78
2023/10/06 05:14:39;;;;;;;1.52;1.23;;;;;;;;;;10326888;28;20443;-78
2023/10/06 05:19:42;;;;;;;1.05;0.90;;;;;;;;;;10320286;28;20050;-77
2023/10/06 05:24:47;;;;;;;1.85;1.27;;;;;;;;;;10319343;28;20223;-77
2023/10/06 05:29:52;;;;;;;1.43;1.10;;;;;;;;;;10309970;28;20827;-77
2023/10/06 05:34:57;;;;;;;1.27;0.90;;;;;;;;;;10316475;28;20500;-77
2023/10/06 05:40:00;;;;;;;1.13;0.93;;;;;;;;;;10316095;28;20366;-77
2023/10/06 05:45:15;;;;;;;2.47;1.00;;;;;;;;;;10313806;28;20512;-77
2023/10/06 05:50:26;;;;;;;2.97;1.30;;;;;;;;;;10303900;28;20381;-77
2023/10/06 05:55:30;;;;;;;3.13;1.30;;;;;;;;;;10328474;28;20144;-77
2023/10/06 06:00:35;;;;;;;2.47;1.40;;;;;;;;;;10324122;28;20519;-77
2023/10/06 06:05:39;;;;;;;2.17;1.63;;;;;;;;;;10315394;28;20520;-77
2023/10/06 06:10:45;;;;;;;2.50;1.63;;;;;;;;;;10322994;28;20387;-77
2023/10/06 06:15:50;;;;;;;2.25;1.42;;;;;;;;;;10320375;28;20572;-77
2023/10/06 06:20:53;;;;;;;2.88;1.55;;;;;;;;;;10309354;28;20138;-77
2023/10/06 06:25:56;;;;;;;2.80;1.80;;;;;;;;;;10326251;28;20050;-78
2023/10/06 06:31:04;;;;;;;3.05;1.60;;;;;;;;;;10323447;28;20046;-77
2023/10/06 06:36:08;;;;;;;2.08;1.77;;;;;;;;;;10306954;28;20074;-77
2023/10/06 06:41:11;;;;;;;2.63;1.55;;;;;;;;;;10323586;28;20054;-77
2023/10/06 06:46:16;;;;;;;2.17;1.50;;;;;;;;;;10320749;28;20146;-77
2023/10/06 06:51:27;;;;;;;1.73;1.23;;;;;;;;;;10316302;28;20389;-77
2023/10/06 06:56:31;;;;;;;1.88;1.13;;;;;;;;;;10313350;28;20416;-77
2023/10/06 07:01:38;;;;;;;1.67;1.02;;;;;;;;;;10332763;28;20137;-78
2023/10/06 07:06:42;;;;;;;1.48;1.00;;;;;;;;;;10323064;28;20562;-77
2023/10/06 07:11:46;;;;;;;1.38;0.98;;;;;;;;;;10300752;28;20051;-77
2023/10/06 07:16:51;;;;;;;1.83;1.10;;;;;;;;;;10326418;28;20038;-77
2023/10/06 07:21:55;;;;;;;2.13;1.00;;;;;;;;;;10298508;28;20096;-77
2023/10/06 07:26:58;;;;;;;1.67;0.88;;;;;;;;;;10326737;28;20054;-77
2023/10/06 07:32:03;;;;;;;1.10;0.80;;;;;;;;;;10306414;28;20048;-77
2023/10/06 07:37:07;;;;;;;0.65;0.65;;;;;;;;;;10321021;28;20058;-77
2023/10/06 08:08:41;;;;;;;1.23;0.93;;;;;;;;;;10325952;28;20097;-87
2023/10/06 08:13:45;;;;;;;1.20;1.02;;;;;;;;;;10365364;28;20449;-87
2023/10/06 08:18:48;;;;;;;3.08;1.63;;;;;;;;;;10357549;28;20647;-88
2023/10/06 08:23:53;;;;;;;1.77;1.50;;;;;;;;;;10379940;28;20108;-88
2023/10/06 08:28:57;;;;;;;3.63;1.40;;;;;;;;;;10367866;28;20049;-87
2023/10/06 08:34:01;;;;;;;2.53;1.23;;;;;;;;;;10361042;28;20049;-88
2023/10/06 08:39:08;;;;;;;1.65;0.90;;;;;;;;;;10372617;28;20140;-87
2023/10/06 08:44:13;;;;;;;2.30;1.25;;;;;;;;;;10380363;28;20084;-87
2023/10/06 08:49:19;;;;;;;2.97;1.52;;;;;;;;;;10362733;28;20049;-86
2023/10/06 08:54:24;;;;;;;2.65;1.50;;;;;;;;;;10378071;28;20116;-88
2023/10/06 08:59:27;;;;;;;2.13;1.17;;;;;;;;;;10370255;28;21498;-88
2023/10/06 09:04:37;;;;;;;2.35;1.30;;;;;;;;;;10365084;28;20141;-88
2023/10/06 09:09:43;;;;;;;4.22;2.08;;;;;;;;;;10349749;28;20065;-87
2023/10/06 09:14:54;;;;;;;6.38;2.00;;;;;;;;;;10378607;28;20042;-87
2023/10/06 09:19:57;;;;;;;5.28;2.17;;;;;;;;;;10369045;28;20053;-88
2023/10/06 09:25:04;;;;;;;2.28;1.30;;;;;;;;;;10373106;28;20054;-88
2023/10/06 09:30:10;;;;;;;4.25;1.60;;;;;;;;;;10371175;28;20050;-88
2023/10/06 09:35:20;;;;;;;4.60;1.80;;;;;;;;;;10370837;28;20465;-88
2023/10/06 09:40:32;;;;;;;2.88;1.20;;;;;;;;;;10372816;28;20056;-89
2023/10/06 09:45:37;;;;;;;2.05;1.00;;;;;;;;;;10358764;28;20065;-87
2023/10/06 09:50:43;;;;;;;2.67;1.33;;;;;;;;;;10378033;28;20136;-88
2023/10/06 09:55:50;;;;;;;4.38;1.42;;;;;;;;;;10381602;28;20571;-88
2023/10/06 10:00:54;;;;;;;10.10;2.15;;;;;;;;;;10388232;28;20042;-88
2023/10/06 10:06:00;;;;;;;5.65;1.88;;;;;;;;;;10373377;28;20103;-88
2023/10/06 10:11:08;;;;;;;5.35;2.30;;;;;;;;;;10382512;28;20053;-88
2023/10/06 10:16:25;;;;;;;11.30;3.17;;;;;;;;;;10374879;28;20054;-88
2023/10/06 10:21:29;;;;;;;5.63;2.50;;;;;;;;;;10376145;28;20059;-88
2023/10/06 10:26:35;;;;;;;5.63;2.40;;;;;;;;;;10368127;28;20058;-88
2023/10/06 10:31:38;;;;;;;4.20;1.67;;;;;;;;;;10389985;28;20136;-88
2023/10/06 10:37:15;;;;;;;9.48;3.30;;;;;;;;;;10386027;28;20064;-88
2023/10/06 10:42:23;;;;;;;4.05;2.20;;;;;;;;;;10361474;28;20100;-87
2023/10/06 10:47:27;;;;;;;6.65;2.95;;;;;;;;;;10368323;28;20588;-88
2023/10/06 10:52:30;;;;;;;6.35;2.70;;;;;;;;;;10359498;28;20111;-88
2023/10/06 10:57:35;;;;;;;3.67;1.70;;;;;;;;;;10381630;28;20129;-88
2023/10/06 11:02:41;;;;;;;5.63;1.98;;;;;;;;;;10375145;28;20053;-88
2023/10/06 11:07:55;;;;;;;4.28;1.42;;;;;;;;;;10373101;28;20045;-88
2023/10/06 11:13:18;;;;;;;4.65;2.13;;;;;;;;;;10354909;28;20053;-88
2023/10/06 11:18:22;;;;;;;3.78;1.90;;;;;;;;;;10366127;28;20080;-88
2023/10/06 11:23:26;;;;;;;4.28;1.77;;;;;;;;;;10368394;28;20505;-88
2023/10/06 11:28:41;;;;;;;4.55;2.15;;;;;;;;;;10396143;28;20053;-87
2023/10/06 11:33:46;;;;;;;5.53;2.60;;;;;;;;;;10386703;28;20046;-88
2023/10/06 11:38:50;;;;;;;5.55;2.05;;;;;;;;;;10360577;28;20313;-88
2023/10/06 11:43:58;;;;;;;4.50;2.20;;;;;;;;;;10363193;28;20069;-88
2023/10/06 11:49:11;;;;;;;6.65;2.17;;;;;;;;;;10365585;28;20046;-87
2023/10/06 11:54:15;;;;;;;5.70;2.85;;;;;;;;;;10363541;28;20061;-88
2023/10/06 11:59:24;;;;;;;5.32;2.25;;;;;;;;;;10380357;28;20131;-86
2023/10/06 12:04:31;;;;;;;7.10;2.53;;;;;;;;;;10367357;28;20116;-88
2023/10/06 12:09:34;;;;;;;6.38;2.50;;;;;;;;;;10377860;28;20145;-88
2023/10/06 12:14:39;;;;;;;5.40;2.20;;;;;;;;;;10363934;28;20046;-88
2023/10/06 12:19:43;;;;;;;5.10;2.40;;;;;;;;;;10377719;28;20054;-88
2023/10/06 12:24:46;;;;;;;7.18;2.83;;;;;;;;;;10375968;28;20042;-88
2023/10/06 12:29:55;;;;;;;3.60;1.92;;;;;;;;;;10375789;28;20124;-89
2023/10/06 12:34:59;;;;;;;5.75;2.25;;;;;;;;;;10361965;28;20038;-89
2023/10/06 12:40:03;;;;;;;5.03;2.47;;;;;;;;;;10370062;28;20061;-87
2023/10/06 12:45:18;;;;;;;4.05;2.22;;;;;;;;;;10350942;28;20449;-87
2023/10/06 12:50:23;;;;;;;4.30;2.38;;;;;;;;;;10382833;28;20061;-88
2023/10/06 12:55:28;;;;;;;7.05;2.72;;;;;;;;;;10359610;28;20056;-87
2023/10/06 13:00:33;;;;;;;5.25;2.45;;;;;;;;;;10381501;28;20045;-89
2023/10/06 13:05:37;;;;;;;4.55;2.30;;;;;;;;;;10367710;28;20449;-88
2023/10/06 13:10:40;;;;;;;6.28;2.63;;;;;;;;;;10365360;28;20085;-89
2023/10/06 13:15:46;;;;;;;4.18;2.40;;;;;;;;;;10363792;28;20053;-88
2023/10/06 13:20:49;;;;;;;;;;;;;;;;;;10393013;28;20049;-88
2023/10/06 13:25:53;;;;;;;4.13;2.08;;;;;;;;;;10339838;28;19996;-88
2023/10/06 13:30:58;;;;;;;4.18;2.30;;;;;;;;;;10349581;28;20173;-87
2023/10/06 13:36:02;;;;;;;5.55;2.67;;;;;;;;;;10348536;28;20134;-88
2023/10/06 13:41:08;;;;;;;4.95;2.00;;;;;;;;;;10382001;23;20059;-77
2023/10/06 13:46:12;;;;;;;4.03;2.00;;;;;;;;;;10289721;28;20244;-76
2023/10/06 13:51:16;;;;;;;5.75;2.47;;;;;;;;;;10290229;28;20042;-77
2023/10/06 13:56:20;;;;;;;8.00;2.40;;;;;;;;;;10289765;28;20058;-77
2023/10/06 14:01:25;;;;;;;4.20;2.25;;;;;;;;;;10289580;28;20057;-77
2023/10/06 14:06:29;;;;;;;5.00;2.35;;;;;;;;;;10289366;28;20142;-76
2023/10/06 14:11:32;;;;;;;5.45;2.33;;;;;;;;;;10289647;28;20504;-76
2023/10/06 14:16:38;;;;;;;7.07;3.10;;;;;;;;;;10287594;28;20061;-76
2023/10/06 14:21:42;;;;;;;6.85;2.70;;;;;;;;;;10288679;28;20047;-77
2023/10/06 14:26:45;;;;;;;5.85;2.88;;;;;;;;;;10287991;28;20066;-77
2023/10/06 14:31:58;;;;;;;4.93;2.80;;;;;;;;;;10288527;28;20075;-76
2023/10/06 14:37:11;;;;;;;6.43;3.35;;;;;;;;;;10288354;28;20055;-76
2023/10/06 14:47:37;;;;;;;4.65;2.47;;;;;;;;;;10282776;28;20138;-77
2023/10/06 14:52:41;;;;;;;4.93;2.67;;;;;;;;;;10282173;28;20055;-76
2023/10/06 14:57:44;;;;;;;8.60;4.18;;;;;;;;;;10284275;28;20490;-77
2023/10/06 15:02:50;;;;;;;7.22;3.90;;;;;;;;;;10288601;28;20073;-77
2023/10/06 15:07:54;;;;;;;6.72;3.25;;;;;;;;;;10286553;28;20051;-76
2023/10/06 15:12:59;;;;;;;7.20;3.53;;;;;;;;;;10286523;28;20592;-77
2023/10/06 15:18:06;;;;;;;7.13;3.88;;;;;;;;;;10286523;28;20133;-76
2023/10/06 15:23:17;;;;;;;7.35;3.70;;;;;;;;;;10285759;28;20106;-76
2023/10/06 15:28:23;;;;;;;11.00;4.60;;;;;;;;;;10286230;28;20097;-76
2023/10/06 15:33:39;;;;;;;7.07;3.83;;;;;;;;;;10286090;28;20046;-76
2023/10/06 15:38:43;;;;;;;6.68;3.53;;;;;;;;;;10285532;28;20512;-77
2023/10/06 15:43:46;;;;;;;9.32;4.10;;;;;;;;;;10285160;28;20142;-76
2023/10/06 15:48:56;;;;;;;6.78;3.85;;;;;;;;;;10284940;28;20051;-76
2023/10/06 15:54:02;;;;;;;6.53;3.55;;;;;;;;;;10285375;28;20064;-76
2023/10/06 15:59:12;;;;;;;6.10;3.17;;;;;;;;;;10284645;28;20078;-76
2023/10/06 16:04:17;;;;;;;7.88;3.95;;;;;;;;;;10285433;28;20059;-76
2023/10/06 16:09:23;;;;;;;6.65;3.83;;;;;;;;;;10284360;28;20047;-77
2023/10/06 16:14:28;;;;;;;4.50;2.40;;;;;;;;;;10283740;28;20408;-77
2023/10/06 16:19:34;;;;;;;6.20;2.60;;;;;;;;;;10284139;28;20207;-76
2023/10/06 16:24:38;;;;;;;6.18;2.88;;;;;;;;;;10284538;28;20063;-76
2023/10/06 16:29:41;;;;;;;3.88;2.30;;;;;;;;;;10284080;28;20051;-76
2023/10/06 16:34:46;;;;;;;3.58;2.20;;;;;;;;;;10277053;28;20081;-76
2023/10/06 16:39:50;;;;;;;3.03;1.80;;;;;;;;;;10290709;28;20051;-76
2023/10/06 16:44:53;;;;;;;4.57;1.90;;;;;;;;;;10292899;28;20061;-76
2023/10/06 16:49:57;;;;;;;5.00;2.60;;;;;;;;;;10291100;28;20050;-77
2023/10/06 16:55:01;;;;;;;6.22;2.30;;;;;;;;;;10292330;28;20061;-76
2023/10/06 17:00:09;;;;;;;4.38;2.58;;;;;;;;;;10306188;28;20049;-77
2023/10/06 17:05:14;;;;;;;3.67;2.25;;;;;;;;;;10291762;28;20388;-76
2023/10/06 17:10:18;;;;;;;4.22;2.35;;;;;;;;;;10291100;28;20047;-76
2023/10/06 17:15:21;;;;;;;6.65;3.05;;;;;;;;;;10290884;28;20559;-76
2023/10/06 17:20:27;;;;;;;4.18;2.65;;;;;;;;;;10289366;28;20069;-76
2023/10/06 17:25:31;;;;;;;5.72;2.72;;;;;;;;;;10290749;28;20558;-76
2023/10/06 17:30:35;;;;;;;5.93;3.20;;;;;;;;;;10289908;28;20088;-77
2023/10/06 17:35:41;;;;;;;4.85;2.90;;;;;;;;;;10290374;28;20066;-76
2023/10/06 17:40:44;;;;;;;5.85;3.40;;;;;;;;;;10288615;28;20041;-77
2023/10/06 17:45:48;;;;;;;6.13;3.42;;;;;;;;;;10289994;28;20129;-77
2023/10/06 17:50:53;;;;;;;6.60;3.55;;;;;;;;;;10289371;28;20097;-76
2023/10/06 17:56:00;;;;;;;5.65;3.53;;;;;;;;;;10289709;28;20547;-76
2023/10/06 18:01:03;;;;;;;6.45;3.63;;;;;;;;;;10289232;28;20047;-76
2023/10/06 18:06:09;;;;;;;5.40;3.50;;;;;;;;;;10289021;28;20069;-76
2023/10/06 18:11:14;;;;;;;6.30;3.58;;;;;;;;;;10289460;28;20049;-77
2023/10/06 18:16:17;;;;;;;9.27;4.50;;;;;;;;;;10288423;28;20055;-77
2023/10/06 18:21:22;;;;;;;7.07;3.75;;;;;;;;;;10286398;28;20137;-76
2023/10/06 18:26:25;;;;;;;5.97;3.70;;;;;;;;;;10288691;28;20043;-76
2023/10/06 18:31:29;;;;;;;5.95;3.38;;;;;;;;;;10287988;28;20424;-76
2023/10/06 18:36:33;;;;;;;7.22;3.55;;;;;;;;;;10288180;28;20047;-76
2023/10/06 18:41:36;;;;;;;7.95;4.03;;;;;;;;;;10290614;28;20046;-77
2023/10/06 18:46:40;;;;;;;6.57;3.42;;;;;;;;;;10290799;28;20125;-79
2023/10/06 18:51:45;;;;;;;6.50;3.92;;;;;;;;;;10287044;28;20130;-76
2023/10/06 18:56:48;;;;;;;5.60;3.75;;;;;;;;;;10287412;28;20401;-76
2023/10/06 19:01:52;;;;;;;7.25;3.67;;;;;;;;;;10286592;28;20046;-77
2023/10/06 19:06:57;;;;;;;6.28;3.70;;;;;;;;;;10287389;28;20105;-76
2023/10/06 19:12:02;;;;;;;6.35;4.03;;;;;;;;;;10286624;28;20053;-76
2023/10/06 19:17:06;;;;;;;7.15;3.72;;;;;;;;;;10286439;28;20067;-76
2023/10/06 19:22:12;;;;;;;5.88;3.63;;;;;;;;;;10286624;28;20109;-76
2023/10/06 19:27:15;;;;;;;6.97;3.53;;;;;;;;;;10286089;28;20133;-76
2023/10/06 19:32:18;;;;;;;8.82;3.78;;;;;;;;;;10286220;28;20313;-76
2023/10/06 19:37:24;;;;;;;9.07;4.22;;;;;;;;;;10285361;28;20041;-76
